createdAt,value
2018-12-06T05:00:35.728Z,0.00
2018-12-06T05:01:35.558Z,0.00
2018-12-06T05:02:35.633Z,0.00
2018-12-06T05:03:35.456Z,0.00
2018-12-06T05:04:35.446Z,0.00
2018-12-06T05:05:35.429Z,0.00
2018-12-06T05:06:35.436Z,0.00
2018-12-06T05:07:35.425Z,0.00
2018-12-06T05:08:35.401Z,0.00
2018-12-06T05:09:35.407Z,0.00
2018-12-06T05:10:35.378Z,0.00
2018-12-06T05:11:35.367Z,0.00
2018-12-06T05:12:35.376Z,0.00
2018-12-06T05:13:35.342Z,0.00
2018-12-06T05:14:35.382Z,0.00
2018-12-06T05:15:35.368Z,0.00
2018-12-06T05:16:35.350Z,0.00
2018-12-06T05:17:35.329Z,0.00
2018-12-06T05:18:35.289Z,0.00
2018-12-06T05:19:35.275Z,0.00
2018-12-06T05:20:35.264Z,0.00
2018-12-06T05:21:35.252Z,0.00
2018-12-06T05:22:35.253Z,0.00
2018-12-06T05:23:35.229Z,0.00
2018-12-06T05:24:35.219Z,0.00
2018-12-06T05:25:35.236Z,0.00
2018-12-06T05:26:35.197Z,0.00
2018-12-06T05:27:35.259Z,0.00
2018-12-06T05:28:35.177Z,0.00
2018-12-06T05:29:35.163Z,0.00
2018-12-06T05:30:35.156Z,0.00
2018-12-06T05:31:35.163Z,0.00
2018-12-06T05:32:35.144Z,0.00
2018-12-06T05:33:35.116Z,0.00
2018-12-06T05:34:35.105Z,0.00
2018-12-06T05:35:35.099Z,0.00
2018-12-06T05:36:35.082Z,0.00
2018-12-06T05:37:35.087Z,0.00
2018-12-06T05:38:35.140Z,0.00
2018-12-06T05:39:35.059Z,0.00
2018-12-06T05:40:35.033Z,0.00
2018-12-06T05:41:35.030Z,0.00
2018-12-06T05:42:35.014Z,0.00
2018-12-06T05:43:35.027Z,0.00
2018-12-06T05:44:34.991Z,0.00
2018-12-06T05:45:34.980Z,0.00
2018-12-06T05:46:34.968Z,0.00
2018-12-06T05:47:34.959Z,0.00
2018-12-06T05:48:34.958Z,0.00
2018-12-06T05:49:34.934Z,0.00
2018-12-06T05:50:34.922Z,0.00
2018-12-06T05:51:34.913Z,0.00
2018-12-06T05:52:34.900Z,0.00
2018-12-06T05:53:34.908Z,0.00
2018-12-06T05:54:34.873Z,0.00
2018-12-06T05:55:34.870Z,0.00
2018-12-06T05:56:34.855Z,0.00
2018-12-06T05:57:34.859Z,0.00
2018-12-06T05:58:34.859Z,0.00
2018-12-06T05:59:34.829Z,0.00
2018-12-06T06:00:34.811Z,0.00
2018-12-06T06:01:34.802Z,0.00
2018-12-06T06:02:34.787Z,0.00
2018-12-06T06:03:34.790Z,0.00
2018-12-06T06:04:34.771Z,0.00
2018-12-06T06:05:34.753Z,0.00
2018-12-06T06:06:34.743Z,0.00
2018-12-06T06:07:34.727Z,0.00
2018-12-06T06:08:34.734Z,0.00
2018-12-06T06:09:34.703Z,0.00
2018-12-06T06:10:34.694Z,0.00
2018-12-06T06:11:34.682Z,0.00
2018-12-06T06:12:34.669Z,0.00
2018-12-06T06:13:34.674Z,0.00
2018-12-06T06:14:34.647Z,0.00
2018-12-06T06:15:34.635Z,0.00
2018-12-06T06:16:34.624Z,0.00
2018-12-06T06:17:34.612Z,0.00
2018-12-06T06:18:34.618Z,0.00
2018-12-06T06:19:34.589Z,0.00
2018-12-06T06:20:34.578Z,0.00
2018-12-06T06:21:34.644Z,0.00
2018-12-06T06:22:34.555Z,0.00
2018-12-06T06:23:34.562Z,0.00
2018-12-06T06:24:34.533Z,0.00
2018-12-06T06:25:34.522Z,0.00
2018-12-06T06:26:34.513Z,0.00
2018-12-06T06:27:34.500Z,0.00
2018-12-06T06:28:34.505Z,0.00
2018-12-06T06:29:34.479Z,0.00
2018-12-06T06:30:34.465Z,0.00
2018-12-06T06:31:34.454Z,0.00
2018-12-06T06:32:34.443Z,0.00
2018-12-06T06:33:34.444Z,0.00
2018-12-06T06:34:34.422Z,0.00
2018-12-06T06:35:34.414Z,0.00
2018-12-06T06:36:34.397Z,4.00
2018-12-06T06:37:34.385Z,4.00
2018-12-06T06:38:34.387Z,8.00
2018-12-06T06:39:34.364Z,4.00
2018-12-06T06:40:34.353Z,4.00
2018-12-06T06:41:34.362Z,8.00
2018-12-06T06:42:34.330Z,8.00
2018-12-06T06:43:34.329Z,8.00
2018-12-06T06:44:34.306Z,8.00
2018-12-06T06:45:34.300Z,8.00
2018-12-06T06:46:34.284Z,16.00
2018-12-06T06:47:34.273Z,16.00
2018-12-06T06:48:34.285Z,20.00
2018-12-06T06:49:34.249Z,20.00
2018-12-06T06:50:34.235Z,28.00
2018-12-06T06:51:34.228Z,28.00
2018-12-06T06:52:34.216Z,36.00
2018-12-06T06:53:34.222Z,36.00
2018-12-06T06:54:34.185Z,40.00
2018-12-06T06:55:34.182Z,44.00
2018-12-06T06:56:34.175Z,52.00
2018-12-06T06:57:34.162Z,52.00
2018-12-06T06:58:34.164Z,60.00
2018-12-06T06:59:34.137Z,64.00
2018-12-06T07:00:34.129Z,72.00
2018-12-06T07:01:34.115Z,80.00
2018-12-06T07:02:34.108Z,84.00
2018-12-06T07:03:34.117Z,88.00
2018-12-06T07:04:34.080Z,92.00
2018-12-06T07:05:34.069Z,100.00
2018-12-06T07:06:34.058Z,104.00
2018-12-06T07:07:34.048Z,108.00
2018-12-06T07:08:34.047Z,112.00
2018-12-06T07:09:34.023Z,116.00
2018-12-06T07:10:34.014Z,128.00
2018-12-06T07:11:34.002Z,136.00
2018-12-06T07:12:33.990Z,144.00
2018-12-06T07:13:33.998Z,152.00
2018-12-06T07:14:33.975Z,160.00
2018-12-06T07:15:33.962Z,180.00
2018-12-06T07:16:33.945Z,184.00
2018-12-06T07:17:33.933Z,192.00
2018-12-06T07:18:33.935Z,200.00
2018-12-06T07:19:33.909Z,212.00
2018-12-06T07:20:33.899Z,224.00
2018-12-06T07:21:33.880Z,220.00
2018-12-06T07:22:33.883Z,208.00
2018-12-06T07:23:33.879Z,220.00
2018-12-06T07:24:33.850Z,244.00
2018-12-06T07:25:33.839Z,252.00
2018-12-06T07:26:33.846Z,272.00
2018-12-06T07:27:33.818Z,252.00
2018-12-06T07:28:33.822Z,232.00
2018-12-06T07:29:33.795Z,240.00
2018-12-06T07:30:33.783Z,272.00
2018-12-06T07:31:33.774Z,304.00
2018-12-06T07:32:33.761Z,324.00
2018-12-06T07:33:33.761Z,332.00
2018-12-06T07:34:33.739Z,344.00
2018-12-06T07:35:33.726Z,348.00
2018-12-06T07:36:33.720Z,344.00
2018-12-06T07:37:33.707Z,352.00
2018-12-06T07:38:33.708Z,360.00
2018-12-06T07:39:33.676Z,368.00
2018-12-06T07:40:33.671Z,368.00
2018-12-06T07:41:33.658Z,364.00
2018-12-06T07:42:33.647Z,348.00
2018-12-06T07:43:33.635Z,348.00
2018-12-06T07:44:33.639Z,336.00
2018-12-06T07:45:33.613Z,368.00
2018-12-06T07:46:33.600Z,404.00
2018-12-06T07:47:33.589Z,432.00
2018-12-06T07:48:33.582Z,444.00
2018-12-06T07:49:33.595Z,456.00
2018-12-06T07:50:33.556Z,472.00
2018-12-06T07:51:33.548Z,488.00
2018-12-06T07:52:33.536Z,512.00
2018-12-06T07:53:33.523Z,528.00
2018-12-06T07:54:33.528Z,544.00
2018-12-06T07:55:33.505Z,584.00
2018-12-06T07:56:33.488Z,616.00
2018-12-06T07:57:33.478Z,652.00
2018-12-06T07:58:33.464Z,648.00
2018-12-06T07:59:33.465Z,704.00
2018-12-06T08:00:33.443Z,940.00
2018-12-06T08:01:33.431Z,1136.00
2018-12-06T08:02:33.420Z,1256.00
2018-12-06T08:03:33.410Z,1200.00
2018-12-06T08:04:33.412Z,1056.00
2018-12-06T08:05:33.390Z,868.00
2018-12-06T08:06:33.375Z,752.00
2018-12-06T08:07:33.363Z,764.00
2018-12-06T08:08:33.352Z,900.00
2018-12-06T08:09:33.356Z,1036.00
2018-12-06T08:10:33.362Z,1320.00
2018-12-06T08:11:35.302Z,1480.00
2018-12-06T08:12:33.312Z,1604.00
2018-12-06T08:13:33.297Z,1568.00
2018-12-06T08:14:33.291Z,1392.00
2018-12-06T08:15:33.273Z,1432.00
2018-12-06T08:16:33.261Z,1336.00
2018-12-06T08:17:33.250Z,992.00
2018-12-06T08:18:33.239Z,860.00
2018-12-06T08:19:33.244Z,892.00
2018-12-06T08:20:33.224Z,1040.00
2018-12-06T08:23:33.633Z,924.00
2018-12-06T08:23:45.507Z,788.00
2018-12-06T08:24:44.717Z,732.00
2018-12-06T08:25:43.675Z,740.00
2018-12-06T08:27:53.595Z,756.00
2018-12-06T08:28:53.575Z,768.00
2018-12-06T08:29:53.574Z,796.00
2018-12-06T08:30:53.555Z,884.00
2018-12-06T08:31:53.542Z,1000.00
2018-12-06T08:32:53.534Z,1080.00
2018-12-06T08:33:53.517Z,1140.00
2018-12-06T08:34:53.523Z,1232.00
2018-12-06T08:35:53.494Z,1348.00
2018-12-06T08:36:53.485Z,1488.00
2018-12-06T08:37:53.472Z,1584.00
2018-12-06T08:38:53.462Z,1836.00
2018-12-06T08:39:53.466Z,1464.00
2018-12-06T08:40:53.440Z,2084.00
2018-12-06T08:41:53.426Z,1496.00
2018-12-06T08:42:53.417Z,1760.00
2018-12-06T08:43:53.404Z,1792.00
2018-12-06T08:44:53.409Z,1912.00
2018-12-06T08:45:53.381Z,1960.00
2018-12-06T08:46:53.374Z,2252.00
2018-12-06T08:47:53.359Z,3044.00
2018-12-06T08:48:53.349Z,1652.00
2018-12-06T08:49:53.352Z,1184.00
2018-12-06T08:50:53.325Z,900.00
2018-12-06T08:51:53.313Z,952.00
2018-12-06T08:52:53.301Z,1132.00
2018-12-06T08:53:53.291Z,984.00
2018-12-06T08:54:53.303Z,1416.00
2018-12-06T08:55:53.268Z,1432.00
2018-12-06T08:56:53.257Z,1600.00
2018-12-06T08:57:53.248Z,1400.00
2018-12-06T08:58:53.235Z,1128.00
2018-12-06T08:59:53.240Z,896.00
2018-12-06T09:00:53.217Z,696.00
2018-12-06T09:01:53.199Z,836.00
2018-12-06T09:02:53.189Z,1000.00
2018-12-06T09:03:53.169Z,1060.00
2018-12-06T09:04:53.179Z,1068.00
2018-12-06T09:05:53.168Z,1000.00
2018-12-06T09:06:53.150Z,988.00
2018-12-06T09:07:53.142Z,872.00
2018-12-06T09:08:53.121Z,788.00
2018-12-06T09:09:53.122Z,840.00
2018-12-06T09:10:53.101Z,1148.00
2018-12-06T09:11:53.088Z,1072.00
2018-12-06T09:12:53.065Z,1188.00
2018-12-06T09:13:53.067Z,1372.00
2018-12-06T09:14:53.073Z,1696.00
2018-12-06T09:15:53.044Z,1180.00
2018-12-06T09:16:53.032Z,1528.00
2018-12-06T09:17:53.020Z,1468.00
2018-12-06T09:18:55.062Z,952.00
2018-12-06T09:19:53.011Z,988.00
2018-12-06T09:20:52.987Z,1000.00
2018-12-06T09:21:52.975Z,928.00
2018-12-06T09:22:52.963Z,868.00
2018-12-06T09:23:52.952Z,864.00
2018-12-06T09:24:52.954Z,1012.00
2018-12-06T09:25:52.928Z,1280.00
2018-12-06T09:26:58.714Z,1200.00
2018-12-06T09:27:53.905Z,1676.00
2018-12-06T09:28:52.894Z,1836.00
2018-12-06T09:29:52.898Z,1580.00
2018-12-06T09:30:52.868Z,2216.00
2018-12-06T09:31:52.906Z,2376.00
2018-12-06T09:32:52.851Z,2100.00
2018-12-06T09:33:52.847Z,2052.00
2018-12-06T09:34:52.845Z,2452.00
2018-12-06T09:35:52.815Z,2736.00
2018-12-06T09:36:52.804Z,2904.00
2018-12-06T09:37:52.794Z,2720.00
2018-12-06T09:38:52.777Z,2780.00
2018-12-06T09:39:52.786Z,2864.00
2018-12-06T09:40:52.755Z,2492.00
2018-12-06T09:41:52.744Z,2924.00
2018-12-06T09:42:52.736Z,2292.00
2018-12-06T09:43:52.726Z,2524.00
2018-12-06T09:44:52.728Z,2668.00
2018-12-06T09:45:52.698Z,3348.00
2018-12-06T09:46:52.691Z,3136.00
2018-12-06T09:47:52.681Z,2964.00
2018-12-06T09:48:52.664Z,3136.00
2018-12-06T09:49:52.670Z,3128.00
2018-12-06T09:50:52.655Z,2692.00
2018-12-06T09:51:52.633Z,3264.00
2018-12-06T09:52:52.620Z,3404.00
2018-12-06T09:53:52.607Z,3492.00
2018-12-06T09:54:52.613Z,4424.00
2018-12-06T09:55:52.585Z,4352.00
2018-12-06T09:56:52.726Z,4204.00
2018-12-06T09:57:52.569Z,4052.00
2018-12-06T09:58:52.556Z,4080.00
2018-12-06T09:59:52.558Z,3716.00
2018-12-06T10:00:52.528Z,3508.00
2018-12-06T10:01:52.518Z,3200.00
2018-12-06T10:02:52.509Z,2812.00
2018-12-06T10:03:52.496Z,2280.00
2018-12-06T10:04:52.496Z,2128.00
2018-12-06T10:05:54.543Z,2016.00
2018-12-06T10:06:52.463Z,1972.00
2018-12-06T10:07:52.546Z,1808.00
2018-12-06T10:08:52.446Z,1904.00
2018-12-06T10:09:52.445Z,1744.00
2018-12-06T10:10:52.419Z,1816.00
2018-12-06T10:11:52.407Z,1740.00
2018-12-06T10:12:52.395Z,1792.00
2018-12-06T10:13:54.394Z,1624.00
2018-12-06T10:14:52.387Z,1452.00
2018-12-06T10:15:52.363Z,1256.00
2018-12-06T10:16:52.348Z,1116.00
2018-12-06T10:17:52.340Z,996.00
2018-12-06T10:18:52.545Z,908.00
2018-12-06T10:19:52.335Z,764.00
2018-12-06T10:20:52.303Z,692.00
2018-12-06T10:21:52.292Z,632.00
2018-12-06T10:22:52.282Z,536.00
2018-12-06T10:23:52.270Z,636.00
2018-12-06T10:24:52.274Z,652.00
2018-12-06T10:25:52.247Z,704.00
2018-12-06T10:26:52.237Z,756.00
2018-12-06T10:27:52.224Z,712.00
2018-12-06T10:28:52.214Z,744.00
2018-12-06T10:29:52.234Z,716.00
2018-12-06T10:30:52.190Z,620.00
2018-12-06T10:31:52.183Z,644.00
2018-12-06T10:32:52.168Z,604.00
2018-12-06T10:33:52.156Z,740.00
2018-12-06T10:34:53.516Z,844.00
2018-12-06T10:35:52.147Z,944.00
2018-12-06T10:36:52.124Z,988.00
2018-12-06T10:37:52.112Z,1024.00
2018-12-06T10:38:54.169Z,1012.00
2018-12-06T10:39:52.086Z,1032.00
2018-12-06T10:40:52.093Z,1108.00
2018-12-06T10:41:52.066Z,1128.00
2018-12-06T10:42:53.060Z,1040.00
2018-12-06T10:43:52.048Z,1172.00
2018-12-06T10:44:52.032Z,1204.00
2018-12-06T10:45:52.037Z,1328.00
2018-12-06T10:46:54.228Z,1392.00
2018-12-06T10:47:52.000Z,1280.00
2018-12-06T10:48:51.988Z,1288.00
2018-12-06T10:49:51.977Z,1008.00
2018-12-06T10:50:51.982Z,1084.00
2018-12-06T10:51:51.950Z,988.00
2018-12-06T10:52:51.947Z,1000.00
2018-12-06T10:53:51.934Z,896.00
2018-12-06T10:54:51.920Z,768.00
2018-12-06T10:55:51.942Z,848.00
2018-12-06T10:56:51.911Z,816.00
2018-12-06T10:57:51.897Z,712.00
2018-12-06T10:58:51.882Z,772.00
2018-12-06T10:59:51.867Z,712.00
2018-12-06T11:00:57.205Z,680.00
2018-12-06T11:01:52.852Z,696.00
2018-12-06T11:02:51.835Z,648.00
2018-12-06T11:03:51.822Z,624.00
2018-12-06T11:04:51.814Z,664.00
2018-12-06T11:05:51.827Z,688.00
2018-12-06T11:06:51.804Z,692.00
2018-12-06T11:07:51.781Z,748.00
2018-12-06T11:08:51.772Z,756.00
2018-12-06T11:09:51.763Z,844.00
2018-12-06T11:10:51.792Z,800.00
2018-12-06T11:11:51.743Z,880.00
2018-12-06T11:12:51.721Z,772.00
2018-12-06T11:13:51.715Z,780.00
2018-12-06T11:14:51.702Z,776.00
2018-12-06T11:15:51.736Z,928.00
2018-12-06T11:16:51.679Z,872.00
2018-12-06T11:17:51.703Z,828.00
2018-12-06T11:18:51.664Z,972.00
2018-12-06T11:19:51.645Z,836.00
2018-12-06T11:20:51.666Z,768.00
2018-12-06T11:21:51.626Z,788.00
2018-12-06T11:22:51.617Z,872.00
2018-12-06T11:23:51.602Z,912.00
2018-12-06T11:24:51.593Z,1004.00
2018-12-06T11:25:51.597Z,920.00
2018-12-06T11:26:51.566Z,1052.00
2018-12-06T11:27:51.556Z,1064.00
2018-12-06T11:28:51.544Z,1064.00
2018-12-06T11:29:51.553Z,944.00
2018-12-06T11:30:51.552Z,988.00
2018-12-06T11:31:51.509Z,1068.00
2018-12-06T11:32:51.516Z,1108.00
2018-12-06T11:33:51.493Z,1176.00
2018-12-06T11:34:51.475Z,1236.00
2018-12-06T11:35:51.480Z,1296.00
2018-12-06T11:36:51.459Z,1328.00
2018-12-06T11:37:51.446Z,1464.00
2018-12-06T11:38:51.437Z,1520.00
2018-12-06T11:39:51.423Z,1576.00
2018-12-06T11:40:51.444Z,1756.00
2018-12-06T11:41:51.411Z,2048.00
2018-12-06T11:42:51.393Z,1992.00
2018-12-06T11:43:51.387Z,2392.00
2018-12-06T11:44:51.381Z,2340.00
2018-12-06T11:45:51.379Z,2348.00
2018-12-06T11:46:51.345Z,2276.00
2018-12-06T11:47:51.335Z,2240.00
2018-12-06T11:48:51.334Z,1972.00
2018-12-06T11:49:51.321Z,1852.00
2018-12-06T11:50:51.321Z,1592.00
2018-12-06T11:51:51.301Z,1408.00
2018-12-06T11:52:51.282Z,1344.00
2018-12-06T11:53:51.265Z,1404.00
2018-12-06T11:54:51.259Z,1396.00
2018-12-06T11:55:51.279Z,1452.00
2018-12-06T11:56:51.259Z,1600.00
2018-12-06T11:57:51.225Z,1576.00
2018-12-06T11:58:51.216Z,1456.00
2018-12-06T11:59:51.203Z,1664.00
2018-12-06T12:00:51.203Z,1716.00
2018-12-06T12:01:51.197Z,1664.00
2018-12-06T12:02:51.173Z,1424.00
2018-12-06T12:03:51.183Z,1456.00
2018-12-06T12:04:51.148Z,1680.00
2018-12-06T12:05:58.302Z,1676.00
2018-12-06T12:06:52.118Z,1756.00
2018-12-06T12:07:51.108Z,1748.00
2018-12-06T12:08:51.102Z,1628.00
2018-12-06T12:09:51.112Z,1568.00
2018-12-06T12:10:51.102Z,1780.00
2018-12-06T12:11:51.085Z,1748.00
2018-12-06T12:12:51.055Z,1536.00
2018-12-06T12:13:51.039Z,1408.00
2018-12-06T12:14:51.078Z,1428.00
2018-12-06T12:15:51.044Z,1604.00
2018-12-06T12:16:51.007Z,1420.00
2018-12-06T12:17:50.998Z,1464.00
2018-12-06T12:18:50.990Z,1404.00
2018-12-06T12:19:50.977Z,1328.00
2018-12-06T12:20:50.981Z,1364.00
2018-12-06T12:21:50.950Z,1424.00
2018-12-06T12:22:50.943Z,1368.00
2018-12-06T12:23:50.961Z,1352.00
2018-12-06T12:24:50.924Z,1424.00
2018-12-06T12:25:50.936Z,1480.00
2018-12-06T12:26:50.895Z,1480.00
2018-12-06T12:27:50.885Z,1560.00
2018-12-06T12:28:50.877Z,1652.00
2018-12-06T12:29:50.862Z,1724.00
2018-12-06T12:30:50.891Z,1772.00
2018-12-06T12:31:50.835Z,1912.00
2018-12-06T12:32:50.842Z,2036.00
2018-12-06T12:33:50.822Z,1896.00
2018-12-06T12:34:50.819Z,1908.00
2018-12-06T12:35:50.834Z,1820.00
2018-12-06T12:36:50.791Z,1860.00
2018-12-06T12:37:50.769Z,1900.00
2018-12-06T12:38:50.768Z,1904.00
2018-12-06T12:39:50.757Z,1912.00
2018-12-06T12:40:50.741Z,1956.00
2018-12-06T12:41:50.750Z,1856.00
2018-12-06T12:42:50.723Z,1860.00
2018-12-06T12:43:50.709Z,1828.00
2018-12-06T12:44:50.705Z,1972.00
2018-12-06T12:45:50.691Z,1872.00
2018-12-06T12:46:50.742Z,1736.00
2018-12-06T12:47:50.661Z,1856.00
2018-12-06T12:48:50.653Z,1836.00
2018-12-06T12:49:50.640Z,1816.00
2018-12-06T12:50:50.633Z,1880.00
2018-12-06T12:51:50.644Z,1860.00
2018-12-06T12:52:50.605Z,1796.00
2018-12-06T12:53:50.602Z,1808.00
2018-12-06T12:54:50.583Z,1760.00
2018-12-06T12:55:50.572Z,1748.00
2018-12-06T12:56:50.587Z,1816.00
2018-12-06T12:57:50.559Z,1748.00
2018-12-06T12:58:50.542Z,1764.00
2018-12-06T12:59:50.533Z,1796.00
2018-12-06T13:00:50.518Z,1860.00
2018-12-06T13:01:50.533Z,1800.00
2018-12-06T13:02:50.493Z,1684.00
2018-12-06T13:03:50.488Z,1648.00
2018-12-06T13:04:50.476Z,1580.00
2018-12-06T13:05:50.459Z,1616.00
2018-12-06T13:06:50.460Z,1524.00
2018-12-06T13:07:50.433Z,1524.00
2018-12-06T13:08:50.456Z,1576.00
2018-12-06T13:09:51.996Z,1448.00
2018-12-06T13:10:50.707Z,1348.00
2018-12-06T13:11:51.376Z,1320.00
2018-12-06T13:12:51.965Z,1280.00
2018-12-06T13:13:50.369Z,1212.00
2018-12-06T13:14:50.359Z,1212.00
2018-12-06T13:15:50.346Z,1240.00
2018-12-06T13:16:50.356Z,1184.00
2018-12-06T13:17:50.325Z,1224.00
2018-12-06T13:18:50.313Z,1308.00
2018-12-06T13:19:50.303Z,1256.00
2018-12-06T13:20:50.295Z,1352.00
2018-12-06T13:21:50.328Z,1436.00
2018-12-06T13:22:50.270Z,1424.00
2018-12-06T13:23:50.258Z,1472.00
2018-12-06T13:24:50.253Z,1464.00
2018-12-06T13:25:50.238Z,1464.00
2018-12-06T13:26:50.318Z,1432.00
2018-12-06T13:27:50.216Z,1376.00
2018-12-06T13:28:50.200Z,1320.00
2018-12-06T13:29:50.189Z,1296.00
2018-12-06T13:30:50.179Z,1268.00
2018-12-06T13:31:50.177Z,1204.00
2018-12-06T13:32:50.155Z,1164.00
2018-12-06T13:33:50.144Z,1204.00
2018-12-06T13:34:50.191Z,1148.00
2018-12-06T13:35:50.123Z,1116.00
2018-12-06T13:36:50.129Z,1068.00
2018-12-06T13:37:50.100Z,1048.00
2018-12-06T13:38:50.087Z,968.00
2018-12-06T13:39:50.080Z,960.00
2018-12-06T13:40:50.100Z,964.00
2018-12-06T13:41:50.069Z,864.00
2018-12-06T13:42:50.041Z,920.00
2018-12-06T13:43:50.030Z,812.00
2018-12-06T13:44:50.020Z,844.00
2018-12-06T13:45:50.007Z,848.00
2018-12-06T13:46:50.015Z,736.00
2018-12-06T13:47:49.984Z,764.00
2018-12-06T13:48:49.974Z,816.00
2018-12-06T13:49:49.958Z,864.00
2018-12-06T13:50:49.952Z,908.00
2018-12-06T13:51:49.955Z,864.00
2018-12-06T13:52:49.928Z,836.00
2018-12-06T13:53:49.924Z,868.00
2018-12-06T13:54:49.906Z,864.00
2018-12-06T13:55:49.898Z,856.00
2018-12-06T13:56:53.760Z,784.00
2018-12-06T13:57:49.878Z,820.00
2018-12-06T13:58:49.864Z,816.00
2018-12-06T13:59:50.344Z,764.00
2018-12-06T14:00:50.150Z,764.00
2018-12-06T14:01:49.845Z,684.00
2018-12-06T14:02:49.853Z,636.00
2018-12-06T14:03:49.872Z,668.00
2018-12-06T14:04:49.801Z,684.00
2018-12-06T14:05:49.785Z,640.00
2018-12-06T14:06:49.790Z,660.00
2018-12-06T14:07:49.764Z,596.00
2018-12-06T14:08:49.751Z,624.00
2018-12-06T14:09:49.732Z,616.00
2018-12-06T14:10:49.732Z,596.00
2018-12-06T14:11:49.733Z,584.00
2018-12-06T14:12:49.706Z,556.00
2018-12-06T14:13:49.702Z,512.00
2018-12-06T14:14:50.134Z,496.00
2018-12-06T14:15:49.672Z,472.00
2018-12-06T14:16:49.682Z,448.00
2018-12-06T14:17:51.624Z,400.00
2018-12-06T14:18:50.667Z,412.00
2018-12-06T14:19:49.692Z,392.00
2018-12-06T14:20:49.648Z,408.00
2018-12-06T14:21:49.621Z,420.00
2018-12-06T14:22:49.593Z,408.00
2018-12-06T14:23:49.582Z,428.00
2018-12-06T14:24:49.572Z,408.00
2018-12-06T14:25:49.561Z,408.00
2018-12-06T14:26:49.566Z,412.00
2018-12-06T14:27:49.541Z,400.00
2018-12-06T14:28:49.527Z,384.00
2018-12-06T14:29:49.514Z,372.00
2018-12-06T14:30:49.516Z,364.00
2018-12-06T14:31:49.507Z,328.00
2018-12-06T14:32:49.482Z,324.00
2018-12-06T14:33:49.472Z,308.00
2018-12-06T14:34:49.458Z,268.00
2018-12-06T14:35:49.456Z,264.00
2018-12-06T14:37:01.740Z,252.00
2018-12-06T14:37:50.431Z,236.00
2018-12-06T14:38:49.413Z,216.00
2018-12-06T14:39:49.403Z,208.00
2018-12-06T14:40:49.394Z,168.00
2018-12-06T14:41:49.423Z,128.00
2018-12-06T14:42:49.371Z,108.00
2018-12-06T14:43:49.365Z,92.00
2018-12-06T14:44:49.350Z,76.00
2018-12-06T14:45:49.340Z,64.00
2018-12-06T14:46:49.326Z,64.00
2018-12-06T14:47:49.331Z,64.00
2018-12-06T14:48:49.310Z,60.00
2018-12-06T14:49:49.296Z,64.00
2018-12-06T14:50:50.820Z,64.00
2018-12-06T14:51:49.272Z,72.00
2018-12-06T14:52:49.271Z,72.00
2018-12-06T14:53:49.247Z,72.00
2018-12-06T14:54:49.236Z,68.00
2018-12-06T14:55:49.235Z,68.00
2018-12-06T14:56:49.213Z,60.00
2018-12-06T14:57:49.216Z,52.00
2018-12-06T14:58:49.191Z,52.00
2018-12-06T14:59:49.180Z,56.00
2018-12-06T15:00:49.172Z,48.00
2018-12-06T15:01:49.160Z,44.00
2018-12-06T15:02:49.161Z,48.00
2018-12-06T15:03:49.130Z,40.00
2018-12-06T15:04:49.124Z,40.00
2018-12-06T15:05:49.116Z,36.00
2018-12-06T15:06:49.104Z,28.00
2018-12-06T15:07:49.110Z,28.00
2018-12-06T15:08:49.078Z,24.00
2018-12-06T15:09:49.075Z,20.00
2018-12-06T15:10:49.058Z,20.00
2018-12-06T15:11:49.033Z,16.00
2018-12-06T15:12:49.050Z,16.00
2018-12-06T15:13:49.024Z,16.00
2018-12-06T15:14:49.012Z,12.00
2018-12-06T15:15:49.000Z,12.00
2018-12-06T15:16:48.990Z,8.00
2018-12-06T15:17:48.994Z,4.00
2018-12-06T15:18:48.970Z,8.00
2018-12-06T15:19:48.954Z,8.00
2018-12-06T15:20:48.942Z,48.00
2018-12-06T15:21:48.931Z,44.00
2018-12-06T15:22:48.946Z,44.00
2018-12-06T15:23:48.909Z,40.00
2018-12-06T15:24:48.902Z,40.00
2018-12-06T15:25:48.897Z,40.00
2018-12-06T15:26:48.877Z,40.00
2018-12-06T15:27:48.880Z,40.00
2018-12-06T15:28:48.858Z,40.00
2018-12-06T15:29:48.844Z,36.00
2018-12-06T15:30:48.820Z,40.00
2018-12-06T15:31:49.462Z,40.00
2018-12-06T15:32:48.838Z,40.00
2018-12-06T15:33:48.800Z,40.00
2018-12-06T15:34:48.794Z,40.00
2018-12-06T15:35:48.778Z,40.00
2018-12-06T15:36:48.771Z,36.00
2018-12-06T15:37:48.768Z,36.00
2018-12-06T15:38:48.745Z,36.00
2018-12-06T15:39:48.749Z,40.00
2018-12-06T15:40:48.723Z,40.00
2018-12-06T15:41:48.740Z,36.00
2018-12-06T15:42:48.716Z,36.00
2018-12-06T15:43:48.688Z,36.00
2018-12-06T15:44:49.033Z,36.00
2018-12-06T15:45:50.445Z,36.00
2018-12-06T15:46:48.656Z,36.00
2018-12-06T15:47:48.658Z,36.00
2018-12-06T15:48:48.632Z,36.00
2018-12-06T15:49:48.620Z,36.00
2018-12-06T15:50:48.613Z,36.00
2018-12-06T15:51:48.596Z,36.00
2018-12-06T15:52:48.599Z,36.00
2018-12-06T15:53:48.576Z,36.00
2018-12-06T15:54:49.283Z,36.00
2018-12-06T15:55:48.539Z,36.00
2018-12-06T15:56:48.541Z,36.00
2018-12-06T15:57:50.619Z,36.00
2018-12-06T15:58:49.050Z,36.00
2018-12-06T15:59:48.506Z,36.00
2018-12-06T16:00:48.495Z,36.00
2018-12-06T16:01:48.483Z,36.00
2018-12-06T16:02:48.489Z,36.00
2018-12-06T16:03:48.462Z,40.00
2018-12-06T16:04:48.453Z,40.00
2018-12-06T16:05:48.440Z,36.00
2018-12-06T16:06:48.428Z,36.00
2018-12-06T16:07:48.433Z,36.00
2018-12-06T16:08:48.404Z,40.00
2018-12-06T16:09:48.393Z,36.00
2018-12-06T16:10:48.387Z,40.00
2018-12-06T16:11:48.373Z,40.00
2018-12-06T16:12:48.375Z,36.00
2018-12-06T16:13:48.352Z,36.00
2018-12-06T16:14:48.346Z,40.00
2018-12-06T16:15:48.330Z,40.00
2018-12-06T16:16:48.318Z,36.00
2018-12-06T16:17:48.318Z,40.00
2018-12-06T16:18:48.295Z,36.00
2018-12-06T16:19:48.284Z,40.00
2018-12-06T16:20:48.272Z,36.00
2018-12-06T16:21:48.261Z,36.00
2018-12-06T16:22:48.264Z,36.00
2018-12-06T16:23:48.238Z,36.00
2018-12-06T16:24:48.230Z,36.00
2018-12-06T16:25:48.215Z,36.00
2018-12-06T16:26:48.205Z,40.00
2018-12-06T16:27:48.211Z,36.00
2018-12-06T16:28:48.183Z,36.00
2018-12-06T16:29:51.497Z,36.00
2018-12-06T16:30:48.159Z,36.00
2018-12-06T16:31:48.152Z,36.00
2018-12-06T16:32:48.159Z,36.00
2018-12-06T16:33:48.127Z,36.00
2018-12-06T16:34:48.115Z,36.00
2018-12-06T16:35:48.183Z,36.00
2018-12-06T16:36:48.094Z,36.00
2018-12-06T16:37:48.093Z,40.00
2018-12-06T16:38:48.071Z,40.00
2018-12-06T16:39:48.058Z,36.00
2018-12-06T16:40:48.563Z,36.00
2018-12-06T16:41:48.037Z,36.00
2018-12-06T16:42:48.033Z,36.00
2018-12-06T16:43:48.033Z,36.00
2018-12-06T16:44:49.662Z,36.00
2018-12-06T16:45:49.402Z,36.00
2018-12-06T16:46:48.678Z,36.00
2018-12-06T16:47:48.033Z,36.00
2018-12-06T16:48:47.959Z,36.00
2018-12-06T16:49:50.010Z,36.00
2018-12-06T16:50:47.938Z,40.00
2018-12-06T16:51:49.814Z,36.00
2018-12-06T16:52:48.561Z,36.00
2018-12-06T16:53:48.271Z,36.00
2018-12-06T16:54:47.888Z,36.00
2018-12-06T16:55:51.887Z,40.00
2018-12-06T16:56:47.867Z,36.00
2018-12-06T16:57:47.855Z,36.00
2018-12-06T16:58:47.859Z,36.00
2018-12-06T16:59:47.831Z,40.00
2018-12-06T17:00:47.826Z,36.00
2018-12-06T17:01:47.809Z,40.00
2018-12-06T17:02:47.798Z,40.00
2018-12-06T17:03:49.682Z,36.00
2018-12-06T17:04:49.778Z,36.00
2018-12-06T17:05:49.820Z,36.00
2018-12-06T17:06:47.761Z,36.00
2018-12-06T17:07:47.748Z,36.00
2018-12-06T17:08:47.748Z,36.00
2018-12-06T17:09:51.387Z,36.00
2018-12-06T17:10:47.714Z,36.00
2018-12-06T17:11:47.701Z,40.00
2018-12-06T17:12:47.720Z,36.00
2018-12-06T17:13:47.693Z,36.00
2018-12-06T17:14:47.668Z,36.00
2018-12-06T17:15:47.655Z,36.00
2018-12-06T17:16:47.646Z,40.00
2018-12-06T17:17:47.641Z,36.00
2018-12-06T17:18:47.634Z,40.00
2018-12-06T17:19:47.612Z,40.00
2018-12-06T17:20:47.599Z,36.00
2018-12-06T17:21:47.588Z,36.00
2018-12-06T17:22:47.577Z,40.00
2018-12-06T17:23:47.587Z,36.00
2018-12-06T17:24:47.554Z,36.00
2018-12-06T17:25:47.864Z,36.00
2018-12-06T17:26:47.533Z,36.00
2018-12-06T17:27:47.520Z,40.00
2018-12-06T17:28:47.528Z,36.00
2018-12-06T17:29:48.313Z,36.00
2018-12-06T17:30:47.487Z,36.00
2018-12-06T17:31:47.475Z,40.00
2018-12-06T17:32:47.464Z,40.00
2018-12-06T17:33:47.464Z,36.00
2018-12-06T17:34:47.441Z,36.00
2018-12-06T17:35:47.546Z,36.00